Time;durP1;ratioP1;P1;durP2;ratioP2;P2;SDS_P1;SDS_P2;PMS_P1;PMS_P2;Temp;Humidity;BMP_temperature;BMP_pressure;BME280_temperature;BME280_humidity;BME280_pressure;Samples;Min_cycle;Max_cycle;Signal;HPM_P1;HPM_P2
2021/03/20 00:00:27;;;;;;;17.25;9.30;;;;;;;-2.67;100.00;96565.28;1024339;28;20011;-55
2021/03/20 00:00:59;;;;;;;18.85;9.45;;;;;;;-2.65;100.00;96565.19;1028328;28;20018;-56
2021/03/20 00:01:32;;;;;;;19.80;10.52;;;;;;;-2.63;100.00;96568.59;1016374;29;20263;-55
2021/03/20 00:02:03;;;;;;;16.38;9.82;;;;;;;-2.62;100.00;96572.00;1024180;28;20251;-55
2021/03/20 00:02:33;;;;;;;17.17;9.80;;;;;;;-2.63;100.00;96572.91;1024275;28;20243;-56
2021/03/20 00:03:04;;;;;;;15.95;9.65;;;;;;;-2.63;100.00;96571.19;1024367;29;20393;-54
2021/03/20 00:03:35;;;;;;;18.02;9.75;;;;;;;-2.65;100.00;96575.59;1028128;28;20018;-55
2021/03/20 00:04:06;;;;;;;23.15;9.75;;;;;;;-2.64;100.00;96571.25;1028115;28;20269;-55
2021/03/20 00:04:37;;;;;;;16.60;9.15;;;;;;;-2.64;100.00;96566.88;1032138;28;20634;-55
2021/03/20 00:05:08;;;;;;;17.75;9.63;;;;;;;-2.61;100.00;96574.53;1028374;28;20026;-55
2021/03/20 00:05:39;;;;;;;18.25;10.00;;;;;;;-2.61;100.00;96576.28;1028221;28;20471;-52
2021/03/20 00:06:10;;;;;;;18.33;9.32;;;;;;;-2.64;100.00;96579.88;1028149;28;20393;-55
2021/03/20 00:06:43;;;;;;;16.60;9.50;;;;;;;-2.68;100.00;96576.59;1024292;28;20035;-55
2021/03/20 00:07:14;;;;;;;16.75;9.50;;;;;;;-2.67;100.00;96572.25;1016360;29;20024;-56
2021/03/20 00:07:45;;;;;;;18.55;9.70;;;;;;;-2.66;100.00;96573.94;1024168;29;20427;-55
2021/03/20 00:08:18;;;;;;;18.73;9.95;;;;;;;-2.67;100.00;96573.06;1028262;28;20077;-56
2021/03/20 00:08:49;;;;;;;18.45;9.88;;;;;;;-2.67;100.00;96578.28;1020359;28;20042;-55
2021/03/20 00:09:23;;;;;;;16.85;9.23;;;;;;;-2.66;100.00;96573.94;1032245;28;20272;-55
2021/03/20 00:09:54;;;;;;;17.83;9.68;;;;;;;-2.66;100.00;96579.13;1033318;28;20312;-55
2021/03/20 00:10:24;;;;;;;16.38;8.93;;;;;;;-2.69;100.00;96574.91;1024055;29;20767;-55
2021/03/20 00:10:55;;;;;;;18.27;10.13;;;;;;;-2.77;100.00;96564.09;1028212;28;20558;-55
2021/03/20 00:11:26;;;;;;;17.40;9.30;;;;;;;-2.77;100.00;96573.63;1032292;28;20022;-55
2021/03/20 00:11:57;;;;;;;16.33;9.40;;;;;;;-2.77;100.00;96581.41;1032234;28;20064;-54
2021/03/20 00:12:27;;;;;;;18.00;9.20;;;;;;;-2.73;100.00;96577.78;1028070;28;20022;-55
2021/03/20 00:12:58;;;;;;;18.42;9.55;;;;;;;-2.70;100.00;96581.06;1024290;29;20023;-53
2021/03/20 00:13:29;;;;;;;16.15;9.68;;;;;;;-2.65;100.00;96583.38;1032081;28;20026;-52
2021/03/20 00:14:00;;;;;;;16.90;9.68;;;;;;;-2.64;100.00;96573.84;1032205;28;20101;-54
2021/03/20 00:14:30;;;;;;;17.63;9.13;;;;;;;-2.69;100.00;96581.88;1028160;28;20022;-55
2021/03/20 00:15:02;;;;;;;15.48;9.48;;;;;;;-2.69;100.00;96587.91;1032245;28;20396;-56
2021/03/20 00:15:32;;;;;;;18.00;10.20;;;;;;;-2.68;100.00;96580.97;1028213;28;20022;-56
2021/03/20 00:16:03;;;;;;;17.52;9.75;;;;;;;-2.68;100.00;96576.59;1024327;28;20387;-55
2021/03/20 00:16:34;;;;;;;14.25;9.13;;;;;;;-2.69;100.00;96577.50;1020252;29;20114;-55
2021/03/20 00:17:04;;;;;;;16.80;9.25;;;;;;;-2.71;100.00;96575.94;1032196;28;20042;-55
2021/03/20 00:17:35;;;;;;;15.77;9.52;;;;;;;-2.75;100.00;96584.78;1032198;28;20022;-55
2021/03/20 00:18:06;;;;;;;17.23;9.65;;;;;;;-2.78;100.00;96580.59;1024201;28;20019;-56
2021/03/20 00:18:37;;;;;;;19.00;9.77;;;;;;;-2.79;100.00;96581.50;1032253;28;20392;-55
2021/03/20 00:19:07;;;;;;;19.52;10.48;;;;;;;-2.81;100.00;96579.91;1024238;28;20117;-55
2021/03/20 00:19:38;;;;;;;16.65;9.85;;;;;;;-2.81;100.00;96574.72;1020417;28;20095;-55
2021/03/20 00:20:11;;;;;;;20.88;10.15;;;;;;;-2.81;100.00;96580.75;1028197;28;20513;-54
2021/03/20 00:20:42;;;;;;;17.13;9.55;;;;;;;-2.79;100.00;96578.91;1032112;28;20113;-55
2021/03/20 00:21:13;;;;;;;18.05;9.60;;;;;;;-2.79;100.00;96578.91;1028209;28;20258;-54
2021/03/20 00:21:44;;;;;;;18.77;10.45;;;;;;;-2.78;100.00;96579.75;1024321;29;20805;-55
2021/03/20 00:22:14;;;;;;;20.65;10.02;;;;;;;-2.78;100.00;96582.38;1032264;28;20026;-54
2021/03/20 00:22:45;;;;;;;17.33;9.70;;;;;;;-2.78;100.00;96575.41;1024173;28;20029;-55
2021/03/20 00:23:16;;;;;;;17.13;9.20;;;;;;;-2.76;100.00;96577.91;1024166;29;20366;-54
2021/03/20 00:23:47;;;;;;;17.92;10.45;;;;;;;-2.79;100.00;96584.09;1027990;28;20022;-55
2021/03/20 00:24:18;;;;;;;17.70;9.98;;;;;;;-2.79;100.00;96578.06;1024175;29;20051;-55
2021/03/20 00:24:48;;;;;;;17.27;9.93;;;;;;;-2.79;100.00;96584.09;1024228;29;20259;-55
2021/03/20 00:25:19;;;;;;;16.48;9.48;;;;;;;-2.78;100.00;96577.16;1028158;28;20094;-54
2021/03/20 00:25:50;;;;;;;19.65;10.73;;;;;;;-2.79;100.00;96583.25;1024210;28;20015;-55
2021/03/20 00:26:23;;;;;;;17.40;9.90;;;;;;;-2.78;100.00;96582.38;1032376;28;20025;-56
2021/03/20 00:26:53;;;;;;;18.98;9.95;;;;;;;-2.78;100.00;96579.75;1032225;28;20253;-56
2021/03/20 00:27:24;;;;;;;16.67;9.52;;;;;;;-2.81;100.00;96579.91;1031829;28;20284;-56
2021/03/20 00:27:56;;;;;;;16.60;9.80;;;;;;;-2.81;100.00;96580.75;1032506;28;20022;-55
2021/03/20 00:28:28;;;;;;;17.45;10.05;;;;;;;-2.78;100.00;96585.78;1032209;28;20782;-55
2021/03/20 00:28:59;;;;;;;18.17;11.00;;;;;;;-2.76;100.00;96577.91;1024082;28;20760;-55
2021/03/20 00:29:30;;;;;;;17.13;10.00;;;;;;;-2.77;100.00;96577.09;1028158;28;20260;-55
2021/03/20 00:30:00;;;;;;;17.23;9.88;;;;;;;-2.76;100.00;96572.72;1024137;28;20012;-55
2021/03/20 00:30:31;;;;;;;15.93;9.88;;;;;;;-2.82;100.00;96573.88;1028128;28;20019;-55
2021/03/20 00:31:05;;;;;;;18.95;10.02;;;;;;;-2.73;100.00;96573.41;1024120;29;20019;-55
2021/03/20 00:31:36;;;;;;;17.77;9.93;;;;;;;-2.73;100.00;96575.16;1032341;28;20030;-55
2021/03/20 00:32:06;;;;;;;18.60;10.50;;;;;;;-2.72;100.00;96574.22;1024071;29;20239;-55
2021/03/20 00:32:37;;;;;;;16.40;9.30;;;;;;;-2.75;100.00;96577.84;1020296;29;20493;-55
2021/03/20 00:33:08;;;;;;;18.75;10.32;;;;;;;-2.74;100.00;96576.06;1032187;28;20437;-55
2021/03/20 00:33:39;;;;;;;17.92;10.63;;;;;;;-2.75;100.00;96579.56;1031910;28;20023;-54
2021/03/20 00:34:10;;;;;;;17.80;10.63;;;;;;;-2.77;100.00;96574.50;1028129;28;20489;-55
2021/03/20 00:34:40;;;;;;;19.83;10.55;;;;;;;-2.77;100.00;96571.88;1028084;28;20250;-56
2021/03/20 00:35:12;;;;;;;17.33;10.35;;;;;;;-2.77;100.00;96574.50;1032095;28;20015;-56
2021/03/20 00:35:42;;;;;;;19.58;10.00;;;;;;;-2.80;100.00;96573.78;1028105;28;20018;-55
2021/03/20 00:36:13;;;;;;;17.65;9.70;;;;;;;-2.81;100.00;96575.53;1024150;28;20247;-55
2021/03/20 00:36:44;;;;;;;18.50;9.68;;;;;;;-2.83;100.00;96576.56;1028153;28;20015;-55
2021/03/20 00:37:15;;;;;;;17.35;10.02;;;;;;;-2.81;100.00;96575.53;1020159;29;20252;-55
2021/03/20 00:37:45;;;;;;;18.27;10.27;;;;;;;-2.81;100.00;96574.72;1032080;28;20014;-55
2021/03/20 00:38:16;;;;;;;16.17;9.90;;;;;;;-2.80;100.00;96581.56;1032176;28;20027;-54
2021/03/20 00:38:47;;;;;;;18.58;10.27;;;;;;;-2.79;100.00;96583.25;1028194;28;20105;-56
2021/03/20 00:39:18;;;;;;;17.05;9.75;;;;;;;-2.79;100.00;96570.28;1024169;29;20093;-55
2021/03/20 00:39:48;;;;;;;16.88;10.00;;;;;;;-2.80;100.00;96577.25;1016223;29;20020;-56
2021/03/20 00:40:23;;;;;;;18.50;10.07;;;;;;;-2.82;100.00;96573.03;1028128;28;20101;-55
2021/03/20 00:40:54;;;;;;;17.83;10.07;;;;;;;-2.82;100.00;96580.81;1032123;28;20109;-56
2021/03/20 00:41:25;;;;;;;16.67;9.75;;;;;;;-2.81;100.00;96585.09;1032182;28;20246;-56
2021/03/20 00:41:56;;;;;;;16.65;9.75;;;;;;;-2.82;100.00;96581.69;1032064;28;20049;-56
2021/03/20 00:42:27;;;;;;;20.05;10.20;;;;;;;-2.77;100.00;96584.88;1036263;28;20056;-54
2021/03/20 00:42:58;;;;;;;15.85;9.27;;;;;;;-2.78;100.00;96577.16;1028104;28;20293;-55
2021/03/20 00:43:29;;;;;;;17.30;9.30;;;;;;;-2.79;100.00;96575.47;1024108;29;20016;-53
2021/03/20 00:44:00;;;;;;;16.60;9.63;;;;;;;-2.73;100.00;96583.78;1023861;28;20650;-55
2021/03/20 00:44:31;;;;;;;17.13;8.98;;;;;;;-2.72;100.00;96579.44;1028106;28;20028;-55
2021/03/20 00:45:01;;;;;;;18.13;9.15;;;;;;;-2.77;100.00;96574.50;1027955;28;20504;-55
2021/03/20 00:45:33;;;;;;;17.50;9.80;;;;;;;-2.73;100.00;96577.78;1028070;28;20029;-56
2021/03/20 00:46:06;;;;;;;17.58;9.20;;;;;;;-2.72;100.00;96579.44;1024107;29;20047;-54
2021/03/20 00:46:37;;;;;;;15.48;9.48;;;;;;;-2.72;100.00;96579.44;1028073;28;20262;-55
2021/03/20 00:47:08;;;;;;;17.45;9.80;;;;;;;-2.75;100.00;96579.56;1032175;28;20330;-55
2021/03/20 00:47:39;;;;;;;17.67;10.57;;;;;;;-2.76;100.00;96573.56;1027724;28;20019;-55
2021/03/20 00:48:12;;;;;;;16.50;9.60;;;;;;;-2.76;100.00;96580.53;1028171;28;20035;-55
2021/03/20 00:48:43;;;;;;;18.95;9.48;;;;;;;-2.77;100.00;96576.22;1028109;28;20507;-55
2021/03/20 00:49:14;;;;;;;15.23;9.68;;;;;;;-2.76;100.00;96580.53;1024053;29;20259;-55
2021/03/20 00:49:44;;;;;;;17.45;9.57;;;;;;;-2.77;100.00;96574.50;1027933;28;20568;-55
2021/03/20 00:50:16;;;;;;;18.52;9.85;;;;;;;-2.78;100.00;96580.59;1020146;28;20553;-55
2021/03/20 00:50:47;;;;;;;15.90;9.45;;;;;;;-2.78;100.00;96574.56;1020122;29;20103;-55
2021/03/20 00:51:18;;;;;;;16.45;9.85;;;;;;;-2.76;100.00;96577.91;1028193;28;20258;-56
2021/03/20 00:51:48;;;;;;;18.25;9.80;;;;;;;-2.79;100.00;96568.50;1020048;29;20135;-55
2021/03/20 00:52:19;;;;;;;16.23;9.65;;;;;;;-2.79;100.00;96578.91;1028063;28;20172;-55
2021/03/20 00:52:50;;;;;;;14.82;8.85;;;;;;;-2.79;100.00;96578.91;1028166;28;20460;-56
2021/03/20 00:53:21;;;;;;;15.10;8.93;;;;;;;-2.79;100.00;96572.88;1028159;28;20412;-55
2021/03/20 00:53:52;;;;;;;18.05;9.50;;;;;;;-2.79;100.00;96584.09;1023795;28;20023;-54
2021/03/20 00:54:23;;;;;;;16.45;9.43;;;;;;;-2.81;100.00;96585.94;1032176;28;20015;-56
2021/03/20 00:54:53;;;;;;;16.88;10.07;;;;;;;-2.81;100.00;96580.75;1028054;28;20619;-55
2021/03/20 00:55:24;;;;;;;17.40;9.60;;;;;;;-2.79;100.00;96583.25;1024064;29;20011;-55
2021/03/20 00:55:55;;;;;;;16.88;9.43;;;;;;;-2.78;100.00;96577.16;1028148;28;20131;-54
2021/03/20 00:56:26;;;;;;;16.92;9.35;;;;;;;-2.78;100.00;96580.59;1032175;28;20022;-54
2021/03/20 00:56:57;;;;;;;16.50;9.48;;;;;;;-2.81;100.00;96575.53;1024068;28;20019;-55
2021/03/20 00:57:27;;;;;;;18.38;9.95;;;;;;;-2.77;100.00;96582.28;1028037;28;20015;-55
2021/03/20 00:57:58;;;;;;;15.65;9.68;;;;;;;-2.73;100.00;96582.97;1027893;28;20033;-55
2021/03/20 00:58:32;;;;;;;15.90;9.02;;;;;;;-2.72;100.00;96575.06;1028052;28;20030;-56
2021/03/20 00:59:02;;;;;;;16.35;8.95;;;;;;;-2.73;100.00;96582.97;1032067;28;20014;-57
2021/03/20 00:59:33;;;;;;;18.45;9.48;;;;;;;-2.73;100.00;96583.78;1024145;28;20247;-55
2021/03/20 01:00:11;;;;;;;17.33;10.02;;;;;;;-2.70;100.00;96587.97;1027951;28;20015;-56
2021/03/20 01:00:42;;;;;;;15.35;8.65;;;;;;;-2.79;100.00;96567.69;1028143;28;20017;-55
2021/03/20 01:01:14;;;;;;;18.42;8.85;;;;;;;-2.69;100.00;96576.69;1028098;28;20672;-55
2021/03/20 01:01:45;;;;;;;16.67;9.20;;;;;;;-2.68;100.00;96580.97;1027787;28;20034;-55
2021/03/20 01:02:15;;;;;;;16.83;8.95;;;;;;;-2.66;100.00;96581.72;1031983;28;20639;-54
2021/03/20 01:02:46;;;;;;;14.60;8.70;;;;;;;-2.65;100.00;96583.38;1028157;28;20118;-55
2021/03/20 01:03:17;;;;;;;14.27;8.35;;;;;;;-2.66;100.00;96579.97;1028149;28;20011;-54
2021/03/20 01:03:49;;;;;;;15.30;8.85;;;;;;;-2.71;100.00;96583.72;1031992;28;20612;-55
2021/03/20 01:04:20;;;;;;;15.15;8.65;;;;;;;-2.79;100.00;96573.69;1027842;28;20281;-55
2021/03/20 01:04:50;;;;;;;18.08;9.93;;;;;;;-2.79;100.00;96580.66;1020054;29;20322;-56
2021/03/20 01:05:21;;;;;;;13.77;8.52;;;;;;;-2.77;100.00;96576.22;1027956;28;20015;-55
2021/03/20 01:05:52;;;;;;;16.52;9.10;;;;;;;-2.81;100.00;96566.91;1027991;28;20023;-55
2021/03/20 01:06:25;;;;;;;17.05;9.70;;;;;;;-2.75;100.00;96575.25;1024047;28;20148;-55
2021/03/20 01:06:55;;;;;;;17.35;9.55;;;;;;;-2.72;100.00;96576.84;1024016;28;20196;-56
2021/03/20 01:07:26;;;;;;;16.38;8.63;;;;;;;-2.76;100.00;96573.56;1024613;28;20921;-55
2021/03/20 01:07:57;;;;;;;17.55;9.52;;;;;;;-2.74;100.00;96576.06;1024070;29;20019;-56
2021/03/20 01:08:27;;;;;;;14.77;9.05;;;;;;;-2.72;100.00;96574.22;1024070;28;20470;-55
2021/03/20 01:08:58;;;;;;;16.63;9.20;;;;;;;-2.71;100.00;96575.94;1028076;28;20026;-55
2021/03/20 01:09:30;;;;;;;18.08;9.35;;;;;;;-2.70;100.00;96577.59;1032173;28;20058;-56
2021/03/20 01:10:04;;;;;;;16.92;9.52;;;;;;;-2.69;100.00;96574.91;1028449;28;20259;-55
2021/03/20 01:10:35;;;;;;;15.75;9.70;;;;;;;-2.70;100.00;96575.00;1028771;28;20018;-54
2021/03/20 01:11:06;;;;;;;18.08;9.80;;;;;;;-2.70;100.00;96582.78;1020070;29;20248;-55
2021/03/20 01:11:38;;;;;;;18.65;10.10;;;;;;;-2.71;100.00;96587.16;1028080;28;20023;-55
2021/03/20 01:12:08;;;;;;;18.08;9.60;;;;;;;-2.73;100.00;96583.78;1028095;28;20258;-55
2021/03/20 01:12:39;;;;;;;17.25;9.35;;;;;;;-2.70;100.00;96587.97;1027894;28;20258;-55
2021/03/20 01:13:10;;;;;;;18.00;9.95;;;;;;;-2.71;100.00;96581.94;1024014;28;20449;-56
2021/03/20 01:13:41;;;;;;;17.05;9.55;;;;;;;-2.73;100.00;96583.78;1027830;28;20019;-55
2021/03/20 01:14:11;;;;;;;16.33;9.38;;;;;;;-2.78;100.00;96571.97;1024048;29;20011;-56
2021/03/20 01:14:42;;;;;;;14.20;9.05;;;;;;;-2.69;100.00;96584.47;1023874;29;20501;-55
2021/03/20 01:15:16;;;;;;;15.98;9.02;;;;;;;-2.72;100.00;96580.25;1016115;29;20024;-57
2021/03/20 01:15:47;;;;;;;20.42;10.65;;;;;;;-2.70;100.00;96582.78;1024068;28;20481;-55
2021/03/20 01:16:18;;;;;;;16.67;9.13;;;;;;;-2.70;100.00;96583.66;1027977;28;20324;-55
2021/03/20 01:16:48;;;;;;;14.38;8.35;;;;;;;-2.68;100.00;96580.97;1031903;28;20623;-55
2021/03/20 01:17:19;;;;;;;17.92;9.20;;;;;;;-2.68;100.00;96581.81;1023944;29;20042;-55
2021/03/20 01:17:50;;;;;;;13.80;8.60;;;;;;;-2.66;100.00;96576.53;1023961;29;20031;-55
2021/03/20 01:18:21;;;;;;;17.35;9.35;;;;;;;-2.69;100.00;96574.09;1028013;28;20310;-55
2021/03/20 01:18:52;;;;;;;16.88;9.25;;;;;;;-2.73;100.00;96582.97;1027902;28;20102;-56
2021/03/20 01:19:23;;;;;;;17.90;9.18;;;;;;;-2.74;100.00;96583.88;1023915;29;20026;-55
2021/03/20 01:19:54;;;;;;;16.60;8.98;;;;;;;-2.77;100.00;96576.22;1019958;29;20764;-56
2021/03/20 01:20:25;;;;;;;15.88;9.15;;;;;;;-2.76;100.00;96578.75;1024044;28;20058;-54
2021/03/20 01:20:55;;;;;;;17.27;9.75;;;;;;;-2.74;100.00;96586.47;1027927;28;20046;-56
2021/03/20 01:21:26;;;;;;;18.08;9.80;;;;;;;-2.71;100.00;96581.13;1020032;29;20035;-54
2021/03/20 01:21:57;;;;;;;21.63;9.93;;;;;;;-2.79;100.00;96573.69;1024020;29;20118;-56
2021/03/20 01:22:28;;;;;;;16.10;9.05;;;;;;;-2.70;100.00;96590.59;1035959;28;20025;-56
2021/03/20 01:22:58;;;;;;;18.88;9.75;;;;;;;-2.71;100.00;96586.31;1027983;28;20026;-55
2021/03/20 01:23:29;;;;;;;16.92;10.20;;;;;;;-2.71;100.00;96586.31;1032026;28;20177;-55
2021/03/20 01:24:00;;;;;;;16.42;9.70;;;;;;;-2.74;100.00;96583.88;1027849;28;20027;-55
2021/03/20 01:24:30;;;;;;;16.35;9.27;;;;;;;-2.72;100.00;96585.47;1027837;28;20444;-54
2021/03/20 01:25:01;;;;;;;18.90;9.38;;;;;;;-2.68;100.00;96580.97;1035913;28;20028;-55
2021/03/20 01:25:32;;;;;;;18.42;9.63;;;;;;;-2.66;100.00;96582.56;1031983;28;20093;-54
2021/03/20 01:26:03;;;;;;;15.88;9.63;;;;;;;-2.67;100.00;96585.22;1023979;29;20263;-56
2021/03/20 01:26:34;;;;;;;20.30;10.25;;;;;;;-2.67;100.00;96585.22;1023996;28;20023;-56
2021/03/20 01:27:05;;;;;;;15.02;9.50;;;;;;;-2.66;100.00;96592.13;1027865;28;20420;-56
2021/03/20 01:27:36;;;;;;;16.75;9.88;;;;;;;-2.64;100.00;96579.06;1027831;28;20108;-55
2021/03/20 01:28:07;;;;;;;15.70;8.93;;;;;;;-2.72;100.00;96587.22;1027830;28;20062;-55
2021/03/20 01:28:38;;;;;;;17.65;9.73;;;;;;;-2.72;100.00;96585.47;1024057;28;20031;-55
2021/03/20 01:29:09;;;;;;;15.02;8.27;;;;;;;-2.63;100.00;96580.72;1019980;28;20028;-55
2021/03/20 01:29:40;;;;;;;17.77;9.88;;;;;;;-2.58;100.00;96583.91;1036087;28;20267;-55
2021/03/20 01:30:14;;;;;;;15.82;8.82;;;;;;;-2.60;100.00;96589.19;1020066;29;20015;-55
2021/03/20 01:30:45;;;;;;;14.55;8.25;;;;;;;-2.59;100.00;96585.69;1023985;28;20020;-55
2021/03/20 01:31:16;;;;;;;17.48;8.60;;;;;;;-2.60;100.00;96583.16;1031932;28;20762;-56
2021/03/20 01:31:47;;;;;;;14.32;8.85;;;;;;;-2.59;100.00;96585.69;1031976;28;20109;-55
2021/03/20 01:32:17;;;;;;;17.85;9.10;;;;;;;-2.60;100.00;96578.78;1031877;28;20060;-55
2021/03/20 01:32:48;;;;;;;14.43;8.48;;;;;;;-2.59;100.00;96585.69;1031973;28;20026;-56
2021/03/20 01:33:19;;;;;;;16.73;9.20;;;;;;;-2.58;100.00;96583.91;1035912;28;20192;-55
2021/03/20 01:33:49;;;;;;;14.60;9.18;;;;;;;-2.61;100.00;96584.06;1019789;29;20039;-55
2021/03/20 01:34:20;;;;;;;15.73;9.10;;;;;;;-2.58;100.00;96587.34;1023868;29;20102;-57
2021/03/20 01:34:51;;;;;;;14.57;8.93;;;;;;;-2.53;100.00;96587.94;1027963;28;20034;-55
2021/03/20 01:35:22;;;;;;;14.80;9.02;;;;;;;-2.56;100.00;96593.34;1023928;28;20034;-63
2021/03/20 01:35:53;;;;;;;16.35;8.98;;;;;;;-2.56;100.00;96590.75;1031969;28;20254;-56
2021/03/20 01:36:24;;;;;;;14.40;8.52;;;;;;;-2.51;100.00;96591.34;1031890;28;20113;-55
2021/03/20 01:36:54;;;;;;;14.00;8.30;;;;;;;-2.50;100.00;96587.81;1027886;28;20023;-55
2021/03/20 01:37:25;;;;;;;16.50;9.18;;;;;;;-2.50;100.00;96586.97;1035908;28;20076;-55
2021/03/20 01:37:56;;;;;;;15.55;8.93;;;;;;;-2.50;100.00;96589.56;1023735;28;20027;-55
2021/03/20 01:38:27;;;;;;;14.40;8.93;;;;;;;-2.54;100.00;96588.91;1023900;28;20117;-55
2021/03/20 01:38:57;;;;;;;16.02;9.27;;;;;;;-2.63;100.00;96589.38;1027969;28;20030;-55
2021/03/20 01:39:28;;;;;;;15.57;9.32;;;;;;;-2.60;100.00;96593.56;1024007;28;20472;-56
2021/03/20 01:39:59;;;;;;;15.77;8.90;;;;;;;-2.59;100.00;96590.88;1023816;28;20082;-56
2021/03/20 01:40:32;;;;;;;16.80;9.32;;;;;;;-2.58;100.00;96592.56;1031954;28;20020;-53
2021/03/20 01:41:06;;;;;;;16.15;9.38;;;;;;;-2.60;100.00;96589.19;1031854;28;20022;-55
2021/03/20 01:41:40;;;;;;;16.65;8.77;;;;;;;-2.56;100.00;96589.88;1023900;28;20031;-56
2021/03/20 01:42:12;;;;;;;15.02;9.38;;;;;;;-2.60;100.00;96586.59;1023802;29;20647;-55
2021/03/20 01:42:43;;;;;;;15.00;8.95;;;;;;;-2.56;100.00;96595.94;1027948;28;20502;-56
2021/03/20 01:43:15;;;;;;;14.85;8.20;;;;;;;-2.51;100.00;96586.13;1027859;28;20301;-55
2021/03/20 01:43:46;;;;;;;14.70;8.60;;;;;;;-2.55;100.00;96596.75;1031554;28;20104;-56
2021/03/20 01:44:19;;;;;;;15.43;9.32;;;;;;;-2.49;100.00;96586.03;1031734;28;20352;-56
2021/03/20 01:45:09;;;;;;;14.15;8.77;;;;;;;-2.48;100.00;96591.16;1019881;28;20090;-56
2021/03/20 01:45:40;;;;;;;16.65;9.45;;;;;;;-2.48;100.00;96587.72;1023897;28;20342;-55
2021/03/20 01:46:28;;;;;;;14.77;7.85;;;;;;;-2.61;100.00;96581.47;1031714;28;20262;-55
2021/03/20 01:46:59;;;;;;;17.08;8.25;;;;;;;-2.51;100.00;96588.75;1031786;28;20257;-55
2021/03/20 01:47:30;;;;;;;16.08;9.20;;;;;;;-2.44;100.00;96594.44;1027927;28;20266;-54
2021/03/20 01:48:08;;;;;;;14.73;8.68;;;;;;;-2.43;100.00;96587.50;1035702;28;20766;-55
2021/03/20 01:48:39;;;;;;;13.65;8.18;;;;;;;-2.42;100.00;96589.16;1023804;28;20027;-55
2021/03/20 01:49:18;;;;;;;13.35;8.02;;;;;;;-2.42;100.00;96591.75;1027781;28;20263;-53
2021/03/20 01:49:49;;;;;;;12.90;7.63;;;;;;;-2.43;100.00;96590.94;1032604;28;20446;-56
2021/03/20 01:50:24;;;;;;;13.00;7.47;;;;;;;-2.43;100.00;96590.94;1035735;28;20021;-56
2021/03/20 01:50:57;;;;;;;13.80;8.15;;;;;;;-2.46;100.00;96593.69;1031768;28;20538;-56
2021/03/20 01:51:29;;;;;;;14.80;7.75;;;;;;;-2.48;100.00;96587.72;1023876;28;20258;-55
2021/03/20 01:52:13;;;;;;;15.63;8.73;;;;;;;-2.50;100.00;96585.19;1017253;29;20272;-55
2021/03/20 01:52:44;;;;;;;13.68;7.93;;;;;;;-2.47;100.00;96592.84;1023818;29;20263;-56
2021/03/20 01:53:34;;;;;;;15.27;8.20;;;;;;;-2.50;100.00;96579.16;1023762;28;20263;-55
2021/03/20 01:54:05;;;;;;;13.75;8.40;;;;;;;-2.41;100.00;96583.06;1027830;28;20023;-56
2021/03/20 01:54:44;;;;;;;12.98;7.43;;;;;;;-2.39;100.00;96587.22;1027677;28;20617;-55
2021/03/20 01:55:16;;;;;;;13.35;7.97;;;;;;;-2.35;100.00;96588.78;1027841;28;20031;-55
2021/03/20 01:55:46;;;;;;;16.20;8.60;;;;;;;-2.37;100.00;96585.41;1031823;28;20026;-56
2021/03/20 01:56:21;;;;;;;10.95;7.18;;;;;;;-2.39;100.00;96586.41;1023757;29;20250;-55
2021/03/20 01:56:51;;;;;;;12.30;7.57;;;;;;;-2.41;100.00;96585.66;1019875;29;20154;-55
2021/03/20 01:57:28;;;;;;;16.40;7.95;;;;;;;-2.38;100.00;96588.94;1031742;28;20253;-55
2021/03/20 01:58:00;;;;;;;12.43;7.53;;;;;;;-2.32;100.00;96590.34;1027698;28;20022;-55
2021/03/20 01:58:31;;;;;;;12.32;7.35;;;;;;;-2.31;100.00;96590.28;1027727;28;20301;-56
2021/03/20 01:59:02;;;;;;;12.30;7.47;;;;;;;-2.30;100.00;96593.72;1023878;29;20337;-55
2021/03/20 01:59:32;;;;;;;13.70;7.47;;;;;;;-2.27;100.00;96588.34;1035841;28;20022;-55
2021/03/20 02:00:17;;;;;;;13.15;7.57;;;;;;;-2.28;100.00;96595.31;1023873;29;20023;-56
2021/03/20 02:00:48;;;;;;;14.35;7.80;;;;;;;-2.35;100.00;96587.91;1016042;29;20048;-56
2021/03/20 02:01:23;;;;;;;15.85;8.43;;;;;;;-2.40;100.00;96585.56;1027745;28;20336;-55
2021/03/20 02:01:53;;;;;;;12.45;7.28;;;;;;;-2.40;100.00;96590.78;1037148;28;20294;-55
2021/03/20 02:02:24;;;;;;;14.98;8.15;;;;;;;-2.45;100.00;96581.53;1031755;28;20257;-54
2021/03/20 02:02:55;;;;;;;13.50;7.53;;;;;;;-2.47;100.00;96585.06;1035868;28;20026;-56
2021/03/20 02:03:27;;;;;;;13.23;7.88;;;;;;;-2.43;100.00;96590.09;1023727;28;20023;-56
2021/03/20 02:03:59;;;;;;;13.18;7.50;;;;;;;-2.41;100.00;96588.25;1019795;28;20058;-55
2021/03/20 02:04:30;;;;;;;13.35;8.40;;;;;;;-2.42;100.00;96584.81;1027668;28;20030;-54
2021/03/20 02:05:01;;;;;;;14.95;7.72;;;;;;;-2.36;100.00;96591.44;1027575;28;20545;-54
2021/03/20 02:05:32;;;;;;;13.68;7.53;;;;;;;-2.33;100.00;96592.13;1019815;29;20030;-55
2021/03/20 02:06:03;;;;;;;13.50;7.78;;;;;;;-2.30;100.00;96583.31;1027727;28;20015;-55
2021/03/20 02:06:34;;;;;;;13.93;7.78;;;;;;;-2.34;100.00;96582.63;1023819;28;20027;-56
2021/03/20 02:07:05;;;;;;;13.73;7.95;;;;;;;-2.37;100.00;96589.75;1027734;28;20026;-55
2021/03/20 02:07:36;;;;;;;13.13;7.38;;;;;;;-2.35;100.00;96593.13;1035709;28;20116;-55
2021/03/20 02:08:08;;;;;;;14.85;7.38;;;;;;;-2.36;100.00;96594.06;1027834;28;20254;-56
2021/03/20 02:08:41;;;;;;;13.18;7.65;;;;;;;-2.35;100.00;96593.97;1027799;28;20453;-56
2021/03/20 02:09:12;;;;;;;13.88;8.07;;;;;;;-2.29;100.00;96587.59;1027685;28;20011;-56
2021/03/20 02:09:43;;;;;;;14.32;7.60;;;;;;;-2.31;100.00;96589.44;1027785;28;20078;-54
2021/03/20 02:10:14;;;;;;;11.73;6.88;;;;;;;-2.36;100.00;96591.44;1027702;28;20341;-56
2021/03/20 02:10:45;;;;;;;13.73;8.00;;;;;;;-2.29;100.00;96585.84;1031926;28;20309;-55
2021/03/20 02:11:36;;;;;;;15.20;7.75;;;;;;;-2.31;100.00;96592.88;1031678;28;20261;-55
2021/03/20 02:12:14;;;;;;;12.68;7.38;;;;;;;-2.30;100.00;96591.97;1027827;28;20748;-56
2021/03/20 02:12:46;;;;;;;11.73;6.57;;;;;;;-2.29;100.00;96590.19;1031789;28;20312;-55
2021/03/20 02:13:38;;;;;;;11.27;6.38;;;;;;;-2.25;100.00;96591.72;1023800;28;20306;-55
2021/03/20 02:14:17;;;;;;;12.27;6.43;;;;;;;-2.30;100.00;96591.97;1027719;28;20269;-56
2021/03/20 02:14:50;;;;;;;11.48;6.78;;;;;;;-2.28;100.00;96589.28;1036005;28;20018;-55
2021/03/20 02:15:26;;;;;;;14.43;7.78;;;;;;;-2.27;100.00;96596.16;1035681;28;20018;-56
2021/03/20 02:16:01;;;;;;;12.98;7.20;;;;;;;-2.24;100.00;96589.97;1031918;28;20751;-55
2021/03/20 02:16:42;;;;;;;11.63;7.18;;;;;;;-2.21;100.00;96590.66;1019894;29;20252;-56
2021/03/20 02:17:23;;;;;;;14.40;7.10;;;;;;;-2.17;100.00;96593.94;1031722;28;20336;-55
2021/03/20 02:18:06;;;;;;;12.70;7.30;;;;;;;-2.19;100.00;96587.97;1027638;28;20290;-56
2021/03/20 02:18:43;;;;;;;11.98;7.28;;;;;;;-2.16;100.00;96595.59;1035991;28;20273;-56
2021/03/20 02:19:17;;;;;;;12.70;7.20;;;;;;;-2.16;100.00;96591.25;1023672;28;20613;-54
2021/03/20 02:20:08;;;;;;;11.90;6.95;;;;;;;-2.20;100.00;96587.09;1027816;28;20330;-55
2021/03/20 02:20:58;;;;;;;11.25;6.43;;;;;;;-2.19;100.00;96591.41;1031762;28;20258;-55
2021/03/20 02:21:30;;;;;;;;;;;;;;;-2.18;100.00;96590.47;1026950;28;20298;-55
2021/03/20 02:22:03;;;;;;;12.73;6.32;;;;;;;-2.28;100.00;96590.13;1035764;28;19960;-56
2021/03/20 02:22:35;;;;;;;9.63;5.13;;;;;;;-2.30;100.00;96586.78;1026893;28;20254;-56
2021/03/20 02:23:07;;;;;;;11.35;6.18;;;;;;;-2.30;100.00;96583.31;1031718;28;20288;-56
2021/03/20 02:23:48;;;;;;;10.60;6.25;;;;;;;-2.22;100.00;96593.31;1027370;28;20342;-54
2021/03/20 02:24:39;;;;;;;11.27;6.18;;;;;;;-2.21;100.00;96585.44;1023713;29;20258;-55
2021/03/20 02:25:29;;;;;;;9.55;5.40;;;;;;;-2.15;100.00;96585.09;1027952;28;20282;-55
2021/03/20 02:26:13;;;;;;;10.82;5.72;;;;;;;-2.21;100.00;96588.03;1029178;28;20400;-55
2021/03/20 02:27:03;;;;;;;9.63;5.05;;;;;;;-2.18;100.00;96589.63;1024098;28;20279;-57
2021/03/20 02:27:53;;;;;;;9.68;5.75;;;;;;;-2.16;100.00;96588.66;1025380;28;20823;-55
2021/03/20 02:28:43;;;;;;;10.40;5.38;;;;;;;-2.11;100.00;96588.38;1034307;28;20246;-55
2021/03/20 02:29:38;;;;;;;10.60;5.80;;;;;;;-2.09;100.00;96587.38;1035811;28;20245;-54
2021/03/20 02:30:29;;;;;;;10.45;5.65;;;;;;;-2.04;100.00;96592.31;1031764;28;20336;-56